sensor_id;sensor_type;location;lat;lon;timestamp;pressure;altitude;pressure_sealevel;temperature;humidity
79316;BME280;68779;50.036;19.964;2023-04-24T00:09:00;100802.95;;;14.49;49.35
79316;BME280;68779;50.036;19.964;2023-04-24T00:39:16;100792.23;;;13.97;51.04
79316;BME280;68779;50.036;19.964;2023-04-24T01:09:32;100765.63;;;13.50;52.52
79316;BME280;68779;50.036;19.964;2023-04-24T01:39:48;100744.83;;;13.15;53.98
79316;BME280;68779;50.036;19.964;2023-04-24T02:10:05;100707.69;;;12.96;55.13
79316;BME280;68779;50.036;19.964;2023-04-24T02:40:21;100677.57;;;12.46;57.07
79316;BME280;68779;50.036;19.964;2023-04-24T03:10:37;100673.41;;;12.17;57.53
79316;BME280;68779;50.036;19.964;2023-04-24T03:40:53;100675.35;;;11.81;58.19
79316;BME280;68779;50.036;19.964;2023-04-24T04:11:10;100682.66;;;11.80;59.14
79316;BME280;68779;50.036;19.964;2023-04-24T04:41:26;100677.57;;;12.03;59.21
79316;BME280;68779;50.036;19.964;2023-04-24T05:11:45;100667.79;;;12.70;57.14
79316;BME280;68779;50.036;19.964;2023-04-24T05:41:59;100659.64;;;13.85;54.34
79316;BME280;68779;50.036;19.964;2023-04-24T06:12:20;100636.87;;;14.96;49.66
79316;BME280;68779;50.036;19.964;2023-04-24T06:42:33;100613.44;;;16.00;48.58
79316;BME280;68779;50.036;19.964;2023-04-24T07:12:48;100592.57;;;17.16;46.61
79316;BME280;68779;50.036;19.964;2023-04-24T07:43:05;100553.00;;;18.23;44.63
79316;BME280;68779;50.036;19.964;2023-04-24T08:13:20;100533.91;;;19.50;37.65
79316;BME280;68779;50.036;19.964;2023-04-24T08:43:36;100519.83;;;20.63;35.95
79316;BME280;68779;50.036;19.964;2023-04-24T09:13:54;100492.16;;;20.76;33.53
79316;BME280;68779;50.036;19.964;2023-04-24T09:44:16;100463.98;;;21.62;33.28
79316;BME280;68779;50.036;19.964;2023-04-24T10:14:30;100429.45;;;23.27;29.88
79316;BME280;68779;50.036;19.964;2023-04-24T10:44:47;100415.10;;;24.06;27.78
79316;BME280;68779;50.036;19.964;2023-04-24T11:15:03;100391.25;;;24.73;26.61
79316;BME280;68779;50.036;19.964;2023-04-24T11:45:24;100371.52;;;26.41;24.35
79316;BME280;68779;50.036;19.964;2023-04-24T12:15:40;100348.09;;;24.71;26.75
79316;BME280;68779;50.036;19.964;2023-04-24T12:45:53;100335.24;;;24.13;28.58
79316;BME280;68779;50.036;19.964;2023-04-24T13:16:09;100361.65;;;22.16;36.07
79316;BME280;68779;50.036;19.964;2023-04-24T13:46:24;100374.02;;;21.28;37.83
79316;BME280;68779;50.036;19.964;2023-04-24T14:16:38;100413.19;;;20.56;38.73
79316;BME280;68779;50.036;19.964;2023-04-24T14:46:52;100414.58;;;20.14;40.25
79316;BME280;68779;50.036;19.964;2023-04-24T15:17:08;100422.09;;;19.74;42.77
79316;BME280;68779;50.036;19.964;2023-04-24T15:47:25;100428.41;;;19.16;44.86
79316;BME280;68779;50.036;19.964;2023-04-24T16:17:41;100450.21;;;18.91;45.85
79316;BME280;68779;50.036;19.964;2023-04-24T16:47:57;100439.88;;;18.11;48.43
79316;BME280;68779;50.036;19.964;2023-04-24T17:18:15;100443.92;;;17.54;50.77
79316;BME280;68779;50.036;19.964;2023-04-24T17:48:31;100444.84;;;17.18;52.14
79316;BME280;68779;50.036;19.964;2023-04-24T19:19:42;100485.03;;;16.19;56.21
79316;BME280;68779;50.036;19.964;2023-04-24T20:06:50;100472.34;;;15.88;57.30
79316;BME280;68779;50.036;19.964;2023-04-24T20:37:06;100480.73;;;15.87;58.73
79316;BME280;68779;50.036;19.964;2023-04-24T21:07:23;100476.95;;;15.73;58.47
79316;BME280;68779;50.036;19.964;2023-04-24T21:37:39;100483.24;;;15.59;59.39
79316;BME280;68779;50.036;19.964;2023-04-24T22:07:57;100481.62;;;15.27;64.27
79316;BME280;68779;50.036;19.964;2023-04-24T22:38:13;100467.55;;;15.08;67.35
79316;BME280;68779;50.036;19.964;2023-04-24T23:08:31;100462.10;;;14.54;70.69
79316;BME280;68779;50.036;19.964;2023-04-24T23:38:47;100431.20;;;14.68;71.63
